LFOC

Châteaudun (BA 279) Airport

Châteaudun, France
TAF LFOC 210800Z 2109/2209 36012KT 9999 BKN015 BECMG 2110/2112 SCT025 SCT040 TEMPO 2112/2116 36015G25KT BECMG 2116/2118 CAVOK
Issued Valid From Valid To
Jun-21 @ 08:00 UTC
(2 hours ago)
Jun-21 @ 09:00 UTC
(an hour ago)
Jun-22 @ 09:00 UTC
(in 23 hours)
Expired Click to View Jun-21 @ 09:00 to Jun-21 @ 10:00
TAF LFOC 210800Z 2109/2209 36012KT 9999 BKN015
Wind Visibility Clouds
360° at 12 knots 10,000+ meters
  • Broken at 1,500' AGL
Becoming Jun-21 @ 10:00 to Jun-21 @ 16:00
BECMG 2110/2112 SCT025 SCT040
Wind Visibility Clouds
360° at 12 knots 10,000+ meters
  • Scattered at 2,500' AGL
  • Scattered at 4,000' AGL
Temporary Jun-21 @ 12:00 to Jun-21 @ 16:00
TEMPO 2112/2116 36015G25KT
Wind
360° at 15 knots
 Gusting to 25 knots
Becoming Jun-21 @ 16:00 to Jun-22 @ 09:00
BECMG 2116/2118 CAVOK
Wind Visibility Clouds Conditions
360° at 12 knots 10,000+ meters
  • No significant clouds
TAF LFOC 210800Z 2109/2209 36012KT 9999 BKN015 BECMG 2110/2112 SCT025 SCT040 TEMPO 2112/2116 36015G25KT BECMG 2116/2118 CAVOK
Issued Jun-21 @ 08:00 UTC
(2 hours ago)
Valid From Jun-21 @ 09:00 UTC
(an hour ago)
Valid To Jun-22 @ 09:00 UTC
(in 23 hours)
Jun-21 @ 09:00 - Jun-21 @ 10:00
Wind Visibility
360° at 12 knots 10,000+ meters
Clouds
  • Broken at 1,500' AGL
Becoming Jun-21 @ 10:00 - Jun-21 @ 16:00
Wind Visibility
360° at 12 knots 10,000+ meters
Clouds
  • Scattered at 2,500' AGL
  • Scattered at 4,000' AGL
Temporary Jun-21 @ 12:00 - Jun-21 @ 16:00
Wind
360° at 15 knots
 Gusting to 25 knots
Becoming Jun-21 @ 16:00 - Jun-22 @ 09:00
Wind Visibility
360° at 12 knots 10,000+ meters
Clouds
  • No significant clouds
Conditions